sensor_id;sensor_type;location;lat;lon;timestamp;P1;durP1;ratioP1;P2;durP2;ratioP2
6093;SDS011;19964;42.060;24.700;2023-07-20T00:01:36;7.45;;;6.75;;
6093;SDS011;19964;42.060;24.700;2023-07-20T00:04:04;10.35;;;7.80;;
6093;SDS011;19964;42.060;24.700;2023-07-20T00:06:31;9.52;;;8.10;;
6093;SDS011;19964;42.060;24.700;2023-07-20T00:08:58;8.85;;;7.95;;
6093;SDS011;19964;42.060;24.700;2023-07-20T00:11:26;11.82;;;7.80;;
6093;SDS011;19964;42.060;24.700;2023-07-20T00:13:53;12.82;;;7.40;;
6093;SDS011;19964;42.060;24.700;2023-07-20T00:16:20;11.18;;;7.35;;
6093;SDS011;19964;42.060;24.700;2023-07-20T00:18:49;12.30;;;7.25;;
6093;SDS011;19964;42.060;24.700;2023-07-20T00:21:16;12.18;;;7.85;;
6093;SDS011;19964;42.060;24.700;2023-07-20T00:23:43;16.17;;;7.75;;
6093;SDS011;19964;42.060;24.700;2023-07-20T00:26:10;8.77;;;6.90;;
6093;SDS011;19964;42.060;24.700;2023-07-20T00:28:37;9.43;;;7.07;;
6093;SDS011;19964;42.060;24.700;2023-07-20T00:31:04;11.10;;;7.32;;
6093;SDS011;19964;42.060;24.700;2023-07-20T00:33:31;13.75;;;6.82;;
6093;SDS011;19964;42.060;24.700;2023-07-20T00:36:00;8.30;;;6.80;;
6093;SDS011;19964;42.060;24.700;2023-07-20T00:38:27;9.23;;;7.18;;
6093;SDS011;19964;42.060;24.700;2023-07-20T00:40:54;9.10;;;6.85;;
6093;SDS011;19964;42.060;24.700;2023-07-20T00:43:21;11.40;;;6.82;;
6093;SDS011;19964;42.060;24.700;2023-07-20T00:45:48;10.15;;;7.43;;
6093;SDS011;19964;42.060;24.700;2023-07-20T00:48:15;11.13;;;6.90;;
6093;SDS011;19964;42.060;24.700;2023-07-20T00:50:42;13.52;;;7.50;;
6093;SDS011;19964;42.060;24.700;2023-07-20T00:53:12;9.32;;;6.93;;
6093;SDS011;19964;42.060;24.700;2023-07-20T00:55:39;7.43;;;6.70;;
6093;SDS011;19964;42.060;24.700;2023-07-20T00:58:06;7.90;;;7.13;;
6093;SDS011;19964;42.060;24.700;2023-07-20T01:00:33;12.13;;;7.10;;
6093;SDS011;19964;42.060;24.700;2023-07-20T01:03:01;7.43;;;6.82;;
6093;SDS011;19964;42.060;24.700;2023-07-20T01:05:32;8.35;;;6.75;;
6093;SDS011;19964;42.060;24.700;2023-07-20T01:08:07;14.75;;;7.10;;
6093;SDS011;19964;42.060;24.700;2023-07-20T01:10:46;9.15;;;6.85;;
6093;SDS011;19964;42.060;24.700;2023-07-20T01:13:20;15.48;;;7.15;;
6093;SDS011;19964;42.060;24.700;2023-07-20T01:15:53;10.23;;;7.00;;
6093;SDS011;19964;42.060;24.700;2023-07-20T01:18:23;10.93;;;7.50;;
6093;SDS011;19964;42.060;24.700;2023-07-20T01:20:52;9.57;;;7.18;;
6093;SDS011;19964;42.060;24.700;2023-07-20T01:23:35;8.82;;;7.13;;
6093;SDS011;19964;42.060;24.700;2023-07-20T01:26:27;9.02;;;7.40;;
6093;SDS011;19964;42.060;24.700;2023-07-20T01:29:27;8.10;;;7.28;;
6093;SDS011;19964;42.060;24.700;2023-07-20T01:32:14;14.25;;;7.90;;
6093;SDS011;19964;42.060;24.700;2023-07-20T01:34:45;11.20;;;7.72;;
6093;SDS011;19964;42.060;24.700;2023-07-20T01:37:14;9.32;;;6.78;;
6093;SDS011;19964;42.060;24.700;2023-07-20T01:39:45;8.88;;;7.38;;
6093;SDS011;19964;42.060;24.700;2023-07-20T01:42:12;10.50;;;7.45;;
6093;SDS011;19964;42.060;24.700;2023-07-20T01:44:39;11.10;;;7.57;;
6093;SDS011;19964;42.060;24.700;2023-07-20T01:47:06;11.50;;;7.28;;
6093;SDS011;19964;42.060;24.700;2023-07-20T01:49:35;8.68;;;6.93;;
6093;SDS011;19964;42.060;24.700;2023-07-20T01:52:02;11.70;;;7.28;;
6093;SDS011;19964;42.060;24.700;2023-07-20T01:54:29;8.25;;;7.50;;
6093;SDS011;19964;42.060;24.700;2023-07-20T01:56:56;8.95;;;7.15;;
6093;SDS011;19964;42.060;24.700;2023-07-20T01:59:23;11.75;;;6.88;;
6093;SDS011;19964;42.060;24.700;2023-07-20T02:01:50;8.15;;;7.15;;
6093;SDS011;19964;42.060;24.700;2023-07-20T02:04:18;12.15;;;7.38;;
6093;SDS011;19964;42.060;24.700;2023-07-20T02:06:47;8.75;;;7.20;;
6093;SDS011;19964;42.060;24.700;2023-07-20T02:09:14;8.13;;;7.03;;
6093;SDS011;19964;42.060;24.700;2023-07-20T02:11:41;12.15;;;7.30;;
6093;SDS011;19964;42.060;24.700;2023-07-20T02:14:08;9.40;;;7.20;;
6093;SDS011;19964;42.060;24.700;2023-07-20T02:16:35;11.07;;;7.93;;
6093;SDS011;19964;42.060;24.700;2023-07-20T02:19:02;10.20;;;7.53;;
6093;SDS011;19964;42.060;24.700;2023-07-20T02:21:32;8.63;;;7.00;;
6093;SDS011;19964;42.060;24.700;2023-07-20T02:24:00;10.85;;;6.80;;
6093;SDS011;19964;42.060;24.700;2023-07-20T02:26:27;9.15;;;7.38;;
6093;SDS011;19964;42.060;24.700;2023-07-20T02:28:54;8.60;;;7.50;;
6093;SDS011;19964;42.060;24.700;2023-07-20T02:31:22;8.48;;;7.60;;
6093;SDS011;19964;42.060;24.700;2023-07-20T02:33:49;12.55;;;6.72;;
6093;SDS011;19964;42.060;24.700;2023-07-20T02:36:16;8.23;;;7.22;;
6093;SDS011;19964;42.060;24.700;2023-07-20T02:38:43;9.00;;;7.13;;
6093;SDS011;19964;42.060;24.700;2023-07-20T02:41:12;8.90;;;7.72;;
6093;SDS011;19964;42.060;24.700;2023-07-20T02:43:40;9.10;;;7.68;;
6093;SDS011;19964;42.060;24.700;2023-07-20T02:46:07;9.65;;;7.03;;
6093;SDS011;19964;42.060;24.700;2023-07-20T02:48:34;11.07;;;7.57;;
6093;SDS011;19964;42.060;24.700;2023-07-20T02:51:01;9.48;;;7.22;;
6093;SDS011;19964;42.060;24.700;2023-07-20T02:53:28;10.50;;;7.22;;
6093;SDS011;19964;42.060;24.700;2023-07-20T02:55:55;7.97;;;7.18;;
6093;SDS011;19964;42.060;24.700;2023-07-20T02:58:23;9.05;;;7.00;;
6093;SDS011;19964;42.060;24.700;2023-07-20T03:00:50;10.80;;;7.28;;
6093;SDS011;19964;42.060;24.700;2023-07-20T03:03:17;9.45;;;7.25;;
6093;SDS011;19964;42.060;24.700;2023-07-20T03:05:44;8.02;;;7.22;;
6093;SDS011;19964;42.060;24.700;2023-07-20T03:08:11;7.88;;;6.60;;
6093;SDS011;19964;42.060;24.700;2023-07-20T03:10:38;7.70;;;6.88;;
6093;SDS011;19964;42.060;24.700;2023-07-20T03:13:06;7.47;;;6.78;;
6093;SDS011;19964;42.060;24.700;2023-07-20T03:15:35;9.20;;;6.45;;
6093;SDS011;19964;42.060;24.700;2023-07-20T03:18:02;9.52;;;6.88;;
6093;SDS011;19964;42.060;24.700;2023-07-20T03:20:29;11.65;;;6.45;;
6093;SDS011;19964;42.060;24.700;2023-07-20T03:22:57;11.20;;;7.20;;
6093;SDS011;19964;42.060;24.700;2023-07-20T03:25:24;11.02;;;7.25;;
6093;SDS011;19964;42.060;24.700;2023-07-20T03:27:51;8.57;;;6.03;;
6093;SDS011;19964;42.060;24.700;2023-07-20T03:30:18;7.78;;;6.25;;
6093;SDS011;19964;42.060;24.700;2023-07-20T03:32:47;9.00;;;6.47;;
6093;SDS011;19964;42.060;24.700;2023-07-20T03:35:13;12.15;;;6.32;;
6093;SDS011;19964;42.060;24.700;2023-07-20T03:37:41;7.22;;;6.25;;
6093;SDS011;19964;42.060;24.700;2023-07-20T03:40:09;7.90;;;7.22;;
6093;SDS011;19964;42.060;24.700;2023-07-20T03:42:36;8.73;;;6.38;;
6093;SDS011;19964;42.060;24.700;2023-07-20T03:45:04;6.72;;;6.13;;
6093;SDS011;19964;42.060;24.700;2023-07-20T03:47:31;12.45;;;6.55;;
6093;SDS011;19964;42.060;24.700;2023-07-20T03:50:00;6.90;;;6.25;;
6093;SDS011;19964;42.060;24.700;2023-07-20T03:52:27;7.70;;;5.78;;
6093;SDS011;19964;42.060;24.700;2023-07-20T03:54:54;7.10;;;6.43;;
6093;SDS011;19964;42.060;24.700;2023-07-20T03:57:21;11.18;;;6.40;;
6093;SDS011;19964;42.060;24.700;2023-07-20T03:59:48;6.95;;;6.35;;
6093;SDS011;19964;42.060;24.700;2023-07-20T04:02:15;8.05;;;5.80;;
6093;SDS011;19964;42.060;24.700;2023-07-20T04:04:42;8.48;;;6.82;;
6093;SDS011;19964;42.060;24.700;2023-07-20T04:07:11;8.15;;;6.47;;
6093;SDS011;19964;42.060;24.700;2023-07-20T04:09:38;6.82;;;6.22;;
6093;SDS011;19964;42.060;24.700;2023-07-20T04:12:06;7.63;;;5.68;;
6093;SDS011;19964;42.060;24.700;2023-07-20T04:14:35;7.05;;;5.82;;
6093;SDS011;19964;42.060;24.700;2023-07-20T04:17:03;13.63;;;6.50;;
6093;SDS011;19964;42.060;24.700;2023-07-20T04:19:30;7.05;;;5.97;;
6093;SDS011;19964;42.060;24.700;2023-07-20T04:21:57;7.10;;;6.30;;
6093;SDS011;19964;42.060;24.700;2023-07-20T04:24:25;7.80;;;6.50;;
6093;SDS011;19964;42.060;24.700;2023-07-20T04:26:52;6.70;;;6.07;;
6093;SDS011;19964;42.060;24.700;2023-07-20T04:29:19;11.52;;;6.03;;
6093;SDS011;19964;42.060;24.700;2023-07-20T04:31:46;11.45;;;6.38;;
6093;SDS011;19964;42.060;24.700;2023-07-20T04:34:13;7.13;;;6.40;;
6093;SDS011;19964;42.060;24.700;2023-07-20T04:36:40;7.95;;;5.97;;
6093;SDS011;19964;42.060;24.700;2023-07-20T04:39:07;8.90;;;6.80;;
6093;SDS011;19964;42.060;24.700;2023-07-20T04:41:37;9.05;;;6.00;;
6093;SDS011;19964;42.060;24.700;2023-07-20T04:44:04;11.25;;;6.43;;
6093;SDS011;19964;42.060;24.700;2023-07-20T04:46:31;7.70;;;5.90;;
6093;SDS011;19964;42.060;24.700;2023-07-20T04:48:58;7.43;;;6.22;;
6093;SDS011;19964;42.060;24.700;2023-07-20T04:51:26;10.02;;;6.10;;
6093;SDS011;19964;42.060;24.700;2023-07-20T04:53:55;7.25;;;5.82;;
6093;SDS011;19964;42.060;24.700;2023-07-20T04:56:22;12.00;;;6.20;;
6093;SDS011;19964;42.060;24.700;2023-07-20T04:58:51;10.68;;;6.20;;
6093;SDS011;19964;42.060;24.700;2023-07-20T05:01:18;12.00;;;6.25;;
6093;SDS011;19964;42.060;24.700;2023-07-20T05:03:45;12.02;;;5.80;;
6093;SDS011;19964;42.060;24.700;2023-07-20T05:06:12;8.93;;;6.78;;
6093;SDS011;19964;42.060;24.700;2023-07-20T05:08:39;12.88;;;6.85;;
6093;SDS011;19964;42.060;24.700;2023-07-20T05:11:06;12.75;;;6.85;;
6093;SDS011;19964;42.060;24.700;2023-07-20T05:13:33;8.45;;;6.78;;
6093;SDS011;19964;42.060;24.700;2023-07-20T05:16:02;10.63;;;6.40;;
6093;SDS011;19964;42.060;24.700;2023-07-20T05:18:29;10.80;;;7.25;;
6093;SDS011;19964;42.060;24.700;2023-07-20T05:20:56;12.10;;;6.90;;
6093;SDS011;19964;42.060;24.700;2023-07-20T05:23:23;10.57;;;7.55;;
6093;SDS011;19964;42.060;24.700;2023-07-20T05:25:53;15.55;;;7.45;;
6093;SDS011;19964;42.060;24.700;2023-07-20T05:28:21;14.05;;;6.78;;
6093;SDS011;19964;42.060;24.700;2023-07-20T05:30:48;12.82;;;7.22;;
6093;SDS011;19964;42.060;24.700;2023-07-20T05:33:18;9.85;;;7.22;;
6093;SDS011;19964;42.060;24.700;2023-07-20T05:35:45;12.90;;;7.45;;
6093;SDS011;19964;42.060;24.700;2023-07-20T05:38:12;14.43;;;7.45;;
6093;SDS011;19964;42.060;24.700;2023-07-20T05:40:40;14.10;;;7.30;;
6093;SDS011;19964;42.060;24.700;2023-07-20T05:43:08;16.40;;;7.50;;
6093;SDS011;19964;42.060;24.700;2023-07-20T05:45:35;12.70;;;7.80;;
6093;SDS011;19964;42.060;24.700;2023-07-20T05:48:02;13.63;;;8.68;;
6093;SDS011;19964;42.060;24.700;2023-07-20T05:50:31;11.18;;;7.82;;
6093;SDS011;19964;42.060;24.700;2023-07-20T05:52:58;10.07;;;7.97;;
6093;SDS011;19964;42.060;24.700;2023-07-20T05:55:25;16.90;;;8.35;;
6093;SDS011;19964;42.060;24.700;2023-07-20T05:57:52;21.50;;;8.80;;
6093;SDS011;19964;42.060;24.700;2023-07-20T06:00:21;18.13;;;8.40;;
6093;SDS011;19964;42.060;24.700;2023-07-20T06:02:51;17.42;;;8.60;;
6093;SDS011;19964;42.060;24.700;2023-07-20T06:05:20;21.98;;;9.60;;
6093;SDS011;19964;42.060;24.700;2023-07-20T06:07:50;26.25;;;10.52;;
6093;SDS011;19964;42.060;24.700;2023-07-20T06:10:17;21.25;;;9.50;;
6093;SDS011;19964;42.060;24.700;2023-07-20T06:12:44;16.55;;;9.15;;
6093;SDS011;19964;42.060;24.700;2023-07-20T06:15:24;19.17;;;9.85;;
6093;SDS011;19964;42.060;24.700;2023-07-20T06:17:53;24.85;;;9.65;;
6093;SDS011;19964;42.060;24.700;2023-07-20T06:20:21;23.13;;;9.13;;
6093;SDS011;19964;42.060;24.700;2023-07-20T06:22:52;11.77;;;9.00;;
6093;SDS011;19964;42.060;24.700;2023-07-20T06:25:19;14.15;;;8.15;;
6093;SDS011;19964;42.060;24.700;2023-07-20T06:27:48;18.20;;;8.05;;
6093;SDS011;19964;42.060;24.700;2023-07-20T06:30:16;19.33;;;8.32;;
6093;SDS011;19964;42.060;24.700;2023-07-20T06:32:43;14.32;;;7.70;;
6093;SDS011;19964;42.060;24.700;2023-07-20T06:35:10;14.68;;;8.02;;
6093;SDS011;19964;42.060;24.700;2023-07-20T06:37:37;16.67;;;8.30;;
6093;SDS011;19964;42.060;24.700;2023-07-20T06:40:06;15.45;;;8.48;;
6093;SDS011;19964;42.060;24.700;2023-07-20T06:42:35;13.80;;;7.63;;
6093;SDS011;19964;42.060;24.700;2023-07-20T06:45:02;15.40;;;7.80;;
6093;SDS011;19964;42.060;24.700;2023-07-20T06:47:29;14.32;;;7.85;;
6093;SDS011;19964;42.060;24.700;2023-07-20T06:49:57;15.68;;;7.35;;
6093;SDS011;19964;42.060;24.700;2023-07-20T06:52:24;11.77;;;7.80;;
6093;SDS011;19964;42.060;24.700;2023-07-20T06:54:51;19.35;;;7.75;;
6093;SDS011;19964;42.060;24.700;2023-07-20T06:57:19;11.98;;;7.57;;
6093;SDS011;19964;42.060;24.700;2023-07-20T06:59:46;17.50;;;7.30;;
6093;SDS011;19964;42.060;24.700;2023-07-20T07:02:13;17.20;;;7.60;;
6093;SDS011;19964;42.060;24.700;2023-07-20T07:04:41;11.77;;;6.82;;
6093;SDS011;19964;42.060;24.700;2023-07-20T07:07:08;20.58;;;7.75;;
6093;SDS011;19964;42.060;24.700;2023-07-20T07:09:35;9.93;;;7.05;;
6093;SDS011;19964;42.060;24.700;2023-07-20T07:12:03;13.25;;;7.55;;
6093;SDS011;19964;42.060;24.700;2023-07-20T07:14:32;11.57;;;7.55;;
6093;SDS011;19964;42.060;24.700;2023-07-20T07:16:59;15.30;;;7.22;;
6093;SDS011;19964;42.060;24.700;2023-07-20T07:19:27;11.75;;;7.00;;
6093;SDS011;19964;42.060;24.700;2023-07-20T07:21:54;12.02;;;7.22;;
6093;SDS011;19964;42.060;24.700;2023-07-20T07:24:21;12.23;;;7.00;;
6093;SDS011;19964;42.060;24.700;2023-07-20T07:26:48;10.25;;;7.00;;
6093;SDS011;19964;42.060;24.700;2023-07-20T07:29:15;9.82;;;6.80;;
6093;SDS011;19964;42.060;24.700;2023-07-20T07:31:45;16.15;;;7.22;;
6093;SDS011;19964;42.060;24.700;2023-07-20T07:34:12;11.93;;;7.18;;
6093;SDS011;19964;42.060;24.700;2023-07-20T07:36:39;11.23;;;6.75;;
6093;SDS011;19964;42.060;24.700;2023-07-20T07:39:06;13.55;;;7.30;;
6093;SDS011;19964;42.060;24.700;2023-07-20T07:41:34;11.68;;;7.55;;
6093;SDS011;19964;42.060;24.700;2023-07-20T07:44:01;11.52;;;7.63;;
6093;SDS011;19964;42.060;24.700;2023-07-20T07:46:29;14.75;;;7.47;;
6093;SDS011;19964;42.060;24.700;2023-07-20T07:48:57;15.57;;;7.90;;
6093;SDS011;19964;42.060;24.700;2023-07-20T07:51:24;11.45;;;7.53;;
6093;SDS011;19964;42.060;24.700;2023-07-20T07:53:52;12.07;;;7.30;;
6093;SDS011;19964;42.060;24.700;2023-07-20T07:56:19;11.45;;;7.65;;
6093;SDS011;19964;42.060;24.700;2023-07-20T07:58:48;12.20;;;7.32;;
6093;SDS011;19964;42.060;24.700;2023-07-20T08:01:16;12.68;;;7.55;;
6093;SDS011;19964;42.060;24.700;2023-07-20T08:03:44;8.70;;;7.53;;
6093;SDS011;19964;42.060;24.700;2023-07-20T08:06:14;12.77;;;7.32;;
6093;SDS011;19964;42.060;24.700;2023-07-20T08:08:41;9.25;;;7.10;;
6093;SDS011;19964;42.060;24.700;2023-07-20T08:11:08;8.07;;;7.22;;
6093;SDS011;19964;42.060;24.700;2023-07-20T08:13:36;11.70;;;7.05;;
6093;SDS011;19964;42.060;24.700;2023-07-20T08:16:03;9.25;;;7.22;;
6093;SDS011;19964;42.060;24.700;2023-07-20T08:18:30;10.18;;;6.97;;
6093;SDS011;19964;42.060;24.700;2023-07-20T08:20:58;15.52;;;6.88;;
6093;SDS011;19964;42.060;24.700;2023-07-20T08:23:26;11.18;;;7.47;;
6093;SDS011;19964;42.060;24.700;2023-07-20T08:25:54;11.32;;;6.70;;
6093;SDS011;19964;42.060;24.700;2023-07-20T08:28:21;13.88;;;7.60;;
6093;SDS011;19964;42.060;24.700;2023-07-20T08:30:48;13.90;;;7.75;;
6093;SDS011;19964;42.060;24.700;2023-07-20T08:33:16;10.13;;;6.95;;
6093;SDS011;19964;42.060;24.700;2023-07-20T08:35:45;13.85;;;7.70;;
6093;SDS011;19964;42.060;24.700;2023-07-20T08:38:13;17.83;;;8.13;;
6093;SDS011;19964;42.060;24.700;2023-07-20T08:40:42;14.52;;;7.40;;
6093;SDS011;19964;42.060;24.700;2023-07-20T08:43:10;9.20;;;7.85;;
6093;SDS011;19964;42.060;24.700;2023-07-20T08:45:38;13.43;;;7.25;;
6093;SDS011;19964;42.060;24.700;2023-07-20T08:48:06;10.77;;;7.55;;
6093;SDS011;19964;42.060;24.700;2023-07-20T08:50:35;10.00;;;7.70;;
6093;SDS011;19964;42.060;24.700;2023-07-20T08:53:02;13.32;;;8.80;;
6093;SDS011;19964;42.060;24.700;2023-07-20T08:55:30;16.75;;;8.20;;
6093;SDS011;19964;42.060;24.700;2023-07-20T08:57:59;15.13;;;8.23;;
6093;SDS011;19964;42.060;24.700;2023-07-20T09:00:27;12.52;;;8.35;;
6093;SDS011;19964;42.060;24.700;2023-07-20T09:02:54;15.68;;;7.88;;
6093;SDS011;19964;42.060;24.700;2023-07-20T09:05:22;16.20;;;8.50;;
6093;SDS011;19964;42.060;24.700;2023-07-20T09:07:51;20.48;;;8.23;;
6093;SDS011;19964;42.060;24.700;2023-07-20T09:10:19;10.13;;;7.68;;
6093;SDS011;19964;42.060;24.700;2023-07-20T09:12:47;16.55;;;7.57;;
6093;SDS011;19964;42.060;24.700;2023-07-20T09:15:16;14.15;;;8.57;;
6093;SDS011;19964;42.060;24.700;2023-07-20T09:17:48;12.18;;;7.93;;
6093;SDS011;19964;42.060;24.700;2023-07-20T09:20:16;10.77;;;8.40;;
6093;SDS011;19964;42.060;24.700;2023-07-20T09:22:44;14.52;;;7.72;;
6093;SDS011;19964;42.060;24.700;2023-07-20T09:25:11;12.32;;;8.77;;
6093;SDS011;19964;42.060;24.700;2023-07-20T09:27:40;13.77;;;8.00;;
6093;SDS011;19964;42.060;24.700;2023-07-20T09:30:08;15.02;;;8.32;;
6093;SDS011;19964;42.060;24.700;2023-07-20T09:32:39;12.18;;;7.72;;
6093;SDS011;19964;42.060;24.700;2023-07-20T09:35:12;8.10;;;7.35;;
6093;SDS011;19964;42.060;24.700;2023-07-20T09:37:42;16.95;;;8.55;;
6093;SDS011;19964;42.060;24.700;2023-07-20T09:40:14;16.27;;;8.38;;
6093;SDS011;19964;42.060;24.700;2023-07-20T09:42:42;15.52;;;8.63;;
6093;SDS011;19964;42.060;24.700;2023-07-20T09:45:10;12.45;;;8.40;;
6093;SDS011;19964;42.060;24.700;2023-07-20T09:47:37;13.68;;;7.90;;
6093;SDS011;19964;42.060;24.700;2023-07-20T09:50:07;18.90;;;9.05;;
6093;SDS011;19964;42.060;24.700;2023-07-20T09:52:37;12.50;;;8.25;;
6093;SDS011;19964;42.060;24.700;2023-07-20T09:55:06;12.07;;;8.10;;
6093;SDS011;19964;42.060;24.700;2023-07-20T09:57:35;12.27;;;8.70;;
6093;SDS011;19964;42.060;24.700;2023-07-20T10:00:02;11.07;;;7.97;;
6093;SDS011;19964;42.060;24.700;2023-07-20T10:02:34;12.23;;;8.15;;
6093;SDS011;19964;42.060;24.700;2023-07-20T10:05:08;10.23;;;7.82;;
6093;SDS011;19964;42.060;24.700;2023-07-20T10:07:41;14.20;;;8.02;;
6093;SDS011;19964;42.060;24.700;2023-07-20T10:10:13;11.63;;;8.57;;
6093;SDS011;19964;42.060;24.700;2023-07-20T10:12:42;9.98;;;7.35;;
6093;SDS011;19964;42.060;24.700;2023-07-20T10:15:15;12.52;;;7.60;;
6093;SDS011;19964;42.060;24.700;2023-07-20T10:17:49;11.40;;;7.70;;
6093;SDS011;19964;42.060;24.700;2023-07-20T10:20:24;13.18;;;8.25;;
6093;SDS011;19964;42.060;24.700;2023-07-20T10:22:53;12.20;;;8.38;;
6093;SDS011;19964;42.060;24.700;2023-07-20T10:25:22;11.13;;;8.48;;
6093;SDS011;19964;42.060;24.700;2023-07-20T10:27:49;13.75;;;7.82;;
6093;SDS011;19964;42.060;24.700;2023-07-20T10:30:17;14.00;;;7.88;;
6093;SDS011;19964;42.060;24.700;2023-07-20T10:32:45;15.07;;;7.60;;
6093;SDS011;19964;42.060;24.700;2023-07-20T10:35:13;12.93;;;7.95;;
6093;SDS011;19964;42.060;24.700;2023-07-20T10:37:53;13.57;;;7.32;;
6093;SDS011;19964;42.060;24.700;2023-07-20T10:40:29;11.13;;;7.90;;
6093;SDS011;19964;42.060;24.700;2023-07-20T10:43:01;12.68;;;7.57;;
6093;SDS011;19964;42.060;24.700;2023-07-20T10:45:41;8.70;;;7.78;;
6093;SDS011;19964;42.060;24.700;2023-07-20T10:48:14;11.10;;;7.15;;
6093;SDS011;19964;42.060;24.700;2023-07-20T10:50:42;12.55;;;7.70;;
6093;SDS011;19964;42.060;24.700;2023-07-20T10:53:11;8.57;;;7.88;;
6093;SDS011;19964;42.060;24.700;2023-07-20T10:55:39;12.98;;;7.03;;
6093;SDS011;19964;42.060;24.700;2023-07-20T10:58:07;16.45;;;7.60;;
6093;SDS011;19964;42.060;24.700;2023-07-20T11:03:28;9.48;;;7.20;;
6093;SDS011;19964;42.060;24.700;2023-07-20T11:05:56;9.77;;;7.65;;
6093;SDS011;19964;42.060;24.700;2023-07-20T11:08:41;11.45;;;7.30;;
6093;SDS011;19964;42.060;24.700;2023-07-20T11:11:22;9.00;;;7.72;;
6093;SDS011;19964;42.060;24.700;2023-07-20T11:13:53;9.38;;;7.40;;
6093;SDS011;19964;42.060;24.700;2023-07-20T11:16:30;11.93;;;7.40;;
6093;SDS011;19964;42.060;24.700;2023-07-20T11:18:59;8.90;;;7.45;;
6093;SDS011;19964;42.060;24.700;2023-07-20T11:21:28;11.93;;;7.43;;
6093;SDS011;19964;42.060;24.700;2023-07-20T11:23:57;10.38;;;7.40;;
6093;SDS011;19964;42.060;24.700;2023-07-20T11:26:24;13.77;;;7.22;;
6093;SDS011;19964;42.060;24.700;2023-07-20T11:28:51;16.50;;;8.27;;
6093;SDS011;19964;42.060;24.700;2023-07-20T11:31:18;10.25;;;7.63;;
6093;SDS011;19964;42.060;24.700;2023-07-20T11:33:45;12.30;;;8.00;;
6093;SDS011;19964;42.060;24.700;2023-07-20T11:36:12;11.90;;;7.80;;
6093;SDS011;19964;42.060;24.700;2023-07-20T11:38:41;11.13;;;7.15;;
6093;SDS011;19964;42.060;24.700;2023-07-20T11:41:10;10.40;;;7.35;;
6093;SDS011;19964;42.060;24.700;2023-07-20T11:43:39;9.10;;;7.30;;
6093;SDS011;19964;42.060;24.700;2023-07-20T11:46:07;7.82;;;6.93;;
6093;SDS011;19964;42.060;24.700;2023-07-20T11:48:35;10.30;;;7.07;;
6093;SDS011;19964;42.060;24.700;2023-07-20T11:51:02;10.63;;;6.07;;
6093;SDS011;19964;42.060;24.700;2023-07-20T11:53:29;10.27;;;6.30;;
6093;SDS011;19964;42.060;24.700;2023-07-20T11:55:56;13.75;;;6.55;;
6093;SDS011;19964;42.060;24.700;2023-07-20T11:58:24;7.30;;;5.60;;
6093;SDS011;19964;42.060;24.700;2023-07-20T12:00:54;11.48;;;6.07;;
6093;SDS011;19964;42.060;24.700;2023-07-20T12:03:22;7.18;;;6.40;;
6093;SDS011;19964;42.060;24.700;2023-07-20T12:05:49;9.95;;;6.10;;
6093;SDS011;19964;42.060;24.700;2023-07-20T12:08:16;6.63;;;5.97;;
6093;SDS011;19964;42.060;24.700;2023-07-20T12:10:43;8.70;;;5.78;;
6093;SDS011;19964;42.060;24.700;2023-07-20T12:13:10;6.50;;;5.90;;
6093;SDS011;19964;42.060;24.700;2023-07-20T12:15:39;14.50;;;6.72;;
6093;SDS011;19964;42.060;24.700;2023-07-20T12:18:05;7.72;;;6.00;;
6093;SDS011;19964;42.060;24.700;2023-07-20T12:20:33;13.73;;;6.45;;
6093;SDS011;19964;42.060;24.700;2023-07-20T12:23:02;8.00;;;6.25;;
6093;SDS011;19964;42.060;24.700;2023-07-20T12:25:34;10.95;;;6.20;;
6093;SDS011;19964;42.060;24.700;2023-07-20T12:28:04;10.65;;;6.22;;
6093;SDS011;19964;42.060;24.700;2023-07-20T12:30:31;12.10;;;5.80;;
6093;SDS011;19964;42.060;24.700;2023-07-20T12:33:00;11.93;;;6.25;;
6093;SDS011;19964;42.060;24.700;2023-07-20T12:35:28;11.52;;;6.13;;
6093;SDS011;19964;42.060;24.700;2023-07-20T12:37:55;10.00;;;6.28;;
6093;SDS011;19964;42.060;24.700;2023-07-20T12:40:23;11.32;;;5.88;;
6093;SDS011;19964;42.060;24.700;2023-07-20T12:42:50;7.90;;;5.53;;
6093;SDS011;19964;42.060;24.700;2023-07-20T12:45:17;6.50;;;5.10;;
6093;SDS011;19964;42.060;24.700;2023-07-20T12:47:44;11.07;;;5.00;;
6093;SDS011;19964;42.060;24.700;2023-07-20T12:50:12;7.00;;;4.70;;
6093;SDS011;19964;42.060;24.700;2023-07-20T12:52:39;9.30;;;5.00;;
6093;SDS011;19964;42.060;24.700;2023-07-20T12:55:07;5.20;;;4.80;;
6093;SDS011;19964;42.060;24.700;2023-07-20T12:57:35;8.75;;;5.15;;
6093;SDS011;19964;42.060;24.700;2023-07-20T13:00:03;8.90;;;4.95;;
6093;SDS011;19964;42.060;24.700;2023-07-20T13:02:33;6.78;;;4.75;;
6093;SDS011;19964;42.060;24.700;2023-07-20T13:05:00;13.15;;;5.20;;
6093;SDS011;19964;42.060;24.700;2023-07-20T13:07:31;12.75;;;5.35;;
6093;SDS011;19964;42.060;24.700;2023-07-20T13:09:59;8.95;;;5.30;;
6093;SDS011;19964;42.060;24.700;2023-07-20T13:12:27;10.05;;;5.43;;
6093;SDS011;19964;42.060;24.700;2023-07-20T13:14:55;7.25;;;5.30;;
6093;SDS011;19964;42.060;24.700;2023-07-20T13:17:25;7.68;;;5.70;;
6093;SDS011;19964;42.060;24.700;2023-07-20T13:19:52;16.17;;;5.85;;
6093;SDS011;19964;42.060;24.700;2023-07-20T13:22:20;11.23;;;5.70;;
6093;SDS011;19964;42.060;24.700;2023-07-20T13:24:49;9.20;;;5.68;;
6093;SDS011;19964;42.060;24.700;2023-07-20T13:27:16;8.88;;;5.35;;
6093;SDS011;19964;42.060;24.700;2023-07-20T13:29:47;8.82;;;5.28;;
6093;SDS011;19964;42.060;24.700;2023-07-20T13:32:14;11.80;;;6.53;;
6093;SDS011;19964;42.060;24.700;2023-07-20T13:34:43;10.20;;;5.72;;
6093;SDS011;19964;42.060;24.700;2023-07-20T13:37:10;8.20;;;6.03;;
6093;SDS011;19964;42.060;24.700;2023-07-20T13:39:37;7.13;;;5.65;;
6093;SDS011;19964;42.060;24.700;2023-07-20T13:42:07;11.15;;;6.57;;
6093;SDS011;19964;42.060;24.700;2023-07-20T13:44:36;13.93;;;6.38;;
6093;SDS011;19964;42.060;24.700;2023-07-20T13:47:03;11.65;;;6.00;;
6093;SDS011;19964;42.060;24.700;2023-07-20T13:49:31;7.85;;;6.63;;
6093;SDS011;19964;42.060;24.700;2023-07-20T13:51:58;8.30;;;6.95;;
6093;SDS011;19964;42.060;24.700;2023-07-20T13:54:25;10.18;;;7.32;;
6093;SDS011;19964;42.060;24.700;2023-07-20T13:56:52;11.50;;;8.60;;
6093;SDS011;19964;42.060;24.700;2023-07-20T13:59:20;12.75;;;9.20;;
6093;SDS011;19964;42.060;24.700;2023-07-20T14:01:47;11.65;;;9.13;;
6093;SDS011;19964;42.060;24.700;2023-07-20T14:04:14;13.02;;;9.02;;
6093;SDS011;19964;42.060;24.700;2023-07-20T14:06:42;9.73;;;8.30;;
6093;SDS011;19964;42.060;24.700;2023-07-20T14:09:09;9.77;;;8.35;;
6093;SDS011;19964;42.060;24.700;2023-07-20T14:11:36;11.40;;;8.02;;
6093;SDS011;19964;42.060;24.700;2023-07-20T14:14:03;11.88;;;8.90;;
6093;SDS011;19964;42.060;24.700;2023-07-20T14:16:31;11.63;;;8.35;;
6093;SDS011;19964;42.060;24.700;2023-07-20T14:18:58;13.93;;;8.85;;
6093;SDS011;19964;42.060;24.700;2023-07-20T14:21:25;18.42;;;9.50;;
6093;SDS011;19964;42.060;24.700;2023-07-20T14:23:52;13.23;;;8.48;;
6093;SDS011;19964;42.060;24.700;2023-07-20T14:26:19;12.40;;;7.45;;
6093;SDS011;19964;42.060;24.700;2023-07-20T14:28:46;13.55;;;7.80;;
6093;SDS011;19964;42.060;24.700;2023-07-20T14:31:21;16.50;;;7.43;;
6093;SDS011;19964;42.060;24.700;2023-07-20T14:33:49;10.77;;;7.03;;
6093;SDS011;19964;42.060;24.700;2023-07-20T14:36:16;7.60;;;6.85;;
6093;SDS011;19964;42.060;24.700;2023-07-20T14:38:43;7.75;;;6.63;;
6093;SDS011;19964;42.060;24.700;2023-07-20T14:41:10;12.18;;;6.88;;
6093;SDS011;19964;42.060;24.700;2023-07-20T14:43:37;12.77;;;6.45;;
6093;SDS011;19964;42.060;24.700;2023-07-20T14:46:04;9.68;;;6.35;;
6093;SDS011;19964;42.060;24.700;2023-07-20T14:48:31;10.13;;;6.75;;